Time;durP1;ratioP1;P1;durP2;ratioP2;P2;SDS_P1;SDS_P2;PMS_P1;PMS_P2;Temp;Humidity;BMP_temperature;BMP_pressure;BME280_temperature;BME280_humidity;BME280_pressure;Samples;Min_cycle;Max_cycle;Signal;HPM_P1;HPM_P2
2023/02/06 00:00:34;;;;;;;47.20;20.23;;;;;;;-3.62;61.83;100663.78;5048597;28;20021;-73
2023/02/06 00:03:00;;;;;;;55.58;20.33;;;;;;;-3.70;61.91;100680.63;5047947;28;20033;-73
2023/02/06 00:05:26;;;;;;;52.22;20.48;;;;;;;-3.79;61.99;100682.38;5048204;28;20032;-73
2023/02/06 00:07:51;;;;;;;53.13;20.58;;;;;;;-3.83;62.11;100685.47;5048225;28;20033;-74
2023/02/06 00:10:17;;;;;;;53.50;21.52;;;;;;;-3.91;62.00;100684.38;5048998;28;20131;-76
2023/02/06 00:12:42;;;;;;;47.47;19.90;;;;;;;-3.97;62.04;100682.28;5047752;28;20116;-76
2023/02/06 00:15:08;;;;;;;42.00;18.25;;;;;;;-4.04;62.02;100682.00;5048575;28;20033;-76
2023/02/06 00:17:35;;;;;;;49.13;19.80;;;;;;;-4.10;62.17;100682.63;5049211;28;20428;-76
2023/02/06 00:20:01;;;;;;;76.13;24.67;;;;;;;-4.19;62.12;100686.16;5049216;28;20021;-78
2023/02/06 00:22:27;;;;;;;79.53;24.27;;;;;;;-4.30;61.58;100686.31;5047984;28;20391;-77
2023/02/06 00:24:52;;;;;;;79.97;23.30;;;;;;;-4.36;62.02;100675.19;5048142;28;20520;-73
2023/02/06 00:27:17;;;;;;;78.22;23.17;;;;;;;-4.39;62.19;100685.34;5048148;28;20032;-73
2023/02/06 00:29:43;;;;;;;76.88;24.25;;;;;;;-4.45;61.97;100681.41;5047927;28;20477;-73
2023/02/06 00:32:08;;;;;;;78.50;23.92;;;;;;;-4.56;62.16;100684.25;5050453;28;20028;-76
2023/02/06 00:34:35;;;;;;;76.65;25.00;;;;;;;-4.64;61.88;100679.59;5051091;28;20024;-76
2023/02/06 00:37:00;;;;;;;62.42;20.45;;;;;;;-4.68;62.05;100680.84;5050839;28;20086;-76
2023/02/06 00:39:25;;;;;;;58.03;21.00;;;;;;;-4.74;62.08;100679.59;5052577;28;20028;-76
2023/02/06 00:41:51;;;;;;;60.30;20.80;;;;;;;-4.79;62.22;100680.03;5051463;28;20024;-76
2023/02/06 00:44:16;;;;;;;57.25;21.67;;;;;;;-4.90;62.30;100677.50;5052281;28;20111;-76
2023/02/06 00:46:41;;;;;;;71.70;22.65;;;;;;;-4.96;62.12;100681.59;5052448;28;20037;-76
2023/02/06 00:49:07;;;;;;;69.18;24.33;;;;;;;-5.01;62.10;100682.97;5051972;28;20130;-76
2023/02/06 00:51:32;;;;;;;76.60;26.27;;;;;;;-5.05;62.30;100673.53;5052205;28;20033;-77
2023/02/06 00:53:58;;;;;;;70.70;24.73;;;;;;;-5.08;62.65;100663.97;5051487;28;20036;-76
2023/02/06 00:56:23;;;;;;;92.03;29.02;;;;;;;-5.11;62.29;100653.53;5052466;28;20536;-76
2023/02/06 00:58:48;;;;;;;81.72;27.23;;;;;;;-5.17;62.49;100660.28;5052055;28;20045;-76
2023/02/06 01:01:14;;;;;;;80.32;27.35;;;;;;;-5.21;62.65;100652.66;5052017;28;20044;-76
2023/02/06 01:03:39;;;;;;;82.38;28.77;;;;;;;-5.25;63.00;100654.78;5052157;28;20440;-76
2023/02/06 01:06:05;;;;;;;78.72;26.58;;;;;;;-5.25;63.04;100649.44;5052135;28;20119;-76
2023/02/06 01:08:30;;;;;;;67.82;24.45;;;;;;;-5.29;62.75;100654.19;5051887;28;20031;-76
2023/02/06 01:10:56;;;;;;;72.90;25.17;;;;;;;-5.30;62.69;100649.00;5051731;28;20025;-76
2023/02/06 01:13:21;;;;;;;69.15;26.25;;;;;;;-5.33;62.93;100644.78;5051920;28;20032;-76
2023/02/06 01:15:46;;;;;;;56.90;21.85;;;;;;;-5.34;63.10;100647.59;5051864;28;20033;-76
2023/02/06 01:18:12;;;;;;;53.97;20.58;;;;;;;-5.33;63.13;100641.25;5052303;28;20059;-76
2023/02/06 01:20:38;;;;;;;51.85;20.20;;;;;;;-5.31;63.30;100650.00;5050236;28;20554;-75
2023/02/06 01:23:04;;;;;;;49.38;19.10;;;;;;;-5.33;62.85;100644.78;5049339;28;20493;-75
2023/02/06 01:25:29;;;;;;;52.13;19.88;;;;;;;-5.33;63.49;100639.44;5051696;28;20025;-76
2023/02/06 01:27:55;;;;;;;43.15;16.25;;;;;;;-5.32;63.17;100638.47;5051846;28;20456;-76
2023/02/06 01:30:20;;;;;;;40.67;16.38;;;;;;;-5.34;63.39;100642.25;5051844;28;20541;-76
2023/02/06 01:32:46;;;;;;;39.97;17.38;;;;;;;-5.35;63.16;100640.53;5051715;28;20557;-76
2023/02/06 01:35:12;;;;;;;37.58;16.00;;;;;;;-5.36;63.32;100644.22;5051595;28;20064;-76
2023/02/06 01:37:38;;;;;;;33.47;15.43;;;;;;;-5.39;63.20;100637.31;5051370;28;20049;-76
2023/02/06 01:40:06;;;;;;;36.70;15.35;;;;;;;-5.35;63.32;100640.53;5051286;28;20079;-76
2023/02/06 01:42:36;;;;;;;40.67;18.05;;;;;;;-5.33;63.51;100631.41;5050775;28;20512;-76
2023/02/06 01:45:20;;;;;;;39.38;16.88;;;;;;;-5.31;63.40;100631.25;5050014;28;20487;-77
2023/02/06 01:47:48;;;;;;;37.20;16.02;;;;;;;-5.24;63.71;100632.41;5051165;28;20167;-76
2023/02/06 01:50:14;;;;;;;40.83;18.20;;;;;;;-5.19;64.19;100623.94;5050779;28;20025;-76
2023/02/06 01:52:40;;;;;;;43.05;18.98;;;;;;;-5.16;63.73;100624.53;5051169;28;20032;-76
2023/02/06 01:55:05;;;;;;;41.22;17.38;;;;;;;-5.13;63.94;100608.19;5050860;28;20384;-76
2023/02/06 01:57:32;;;;;;;43.97;19.55;;;;;;;-5.10;63.75;100613.28;5051098;28;20029;-76
2023/02/06 02:00:03;;;;;;;44.15;18.27;;;;;;;-5.03;63.94;100615.34;5050599;28;20033;-75
2023/02/06 02:02:31;;;;;;;44.78;18.75;;;;;;;-4.99;63.83;100600.72;5050676;28;20112;-76
2023/02/06 02:04:57;;;;;;;47.17;20.42;;;;;;;-4.96;64.26;100597.75;5049228;28;20056;-76
2023/02/06 02:07:31;;;;;;;43.67;19.00;;;;;;;-4.93;64.54;100595.66;5050447;28;20116;-76
2023/02/06 02:09:57;;;;;;;43.67;18.52;;;;;;;-4.86;64.25;100593.25;5050504;28;20389;-76
2023/02/06 02:12:23;;;;;;;48.33;19.83;;;;;;;-4.83;64.38;100589.41;5050520;28;20029;-75
2023/02/06 02:14:51;;;;;;;42.53;19.63;;;;;;;-4.78;64.46;100590.69;5050600;28;20469;-76
2023/02/06 02:17:28;;;;;;;44.22;19.33;;;;;;;-4.73;64.72;100592.09;5050738;28;20032;-76
2023/02/06 02:20:14;;;;;;;39.80;17.80;;;;;;;-4.72;64.62;100578.56;5050695;28;20118;-76
2023/02/06 02:22:53;;;;;;;41.42;18.65;;;;;;;-4.66;64.26;100579.81;5050302;28;20067;-76
2023/02/06 02:25:49;;;;;;;43.10;18.88;;;;;;;-4.63;64.88;100582.19;5048719;28;20104;-76
2023/02/06 02:28:32;;;;;;;36.65;16.58;;;;;;;-4.59;64.68;100583.59;5050457;28;20104;-76
2023/02/06 02:31:26;;;;;;;43.58;18.92;;;;;;;-4.56;64.85;100583.31;5050180;28;20489;-75
2023/02/06 02:34:03;;;;;;;43.33;17.88;;;;;;;-4.51;64.69;100586.41;5050352;28;20044;-76
2023/02/06 02:36:42;;;;;;;47.30;19.58;;;;;;;-4.49;64.81;100586.28;5050070;28;20029;-76
2023/02/06 02:39:14;;;;;;;56.47;22.63;;;;;;;-4.42;65.41;100594.56;5050324;28;20180;-76
2023/02/06 02:41:55;;;;;;;67.65;25.75;;;;;;;-4.40;64.92;100596.09;5050136;28;20057;-75
2023/02/06 02:44:40;;;;;;;54.70;22.20;;;;;;;-4.42;64.98;100584.69;5049973;28;20082;-76
2023/02/06 02:47:10;;;;;;;52.80;20.75;;;;;;;-4.41;64.63;100585.53;5050232;28;20586;-76
2023/02/06 02:49:38;;;;;;;52.78;22.17;;;;;;;-4.38;64.92;100586.06;5049971;28;20108;-75
2023/02/06 02:52:04;;;;;;;50.95;22.17;;;;;;;-4.33;65.09;100582.97;5049809;28;20036;-77
2023/02/06 02:54:29;;;;;;;53.60;23.52;;;;;;;-4.32;64.69;100578.44;5048762;28;20543;-76
2023/02/06 02:57:01;;;;;;;60.70;25.33;;;;;;;-4.32;64.47;100575.78;5050137;28;20029;-76
2023/02/06 02:59:35;;;;;;;58.22;23.95;;;;;;;-4.29;65.46;100579.03;5050076;28;20087;-76
2023/02/06 03:02:11;;;;;;;59.53;25.83;;;;;;;-4.27;65.02;100581.53;5050019;28;20035;-76
2023/02/06 03:04:43;;;;;;;56.25;24.00;;;;;;;-4.25;65.07;100583.06;5049562;28;20029;-76
2023/02/06 03:07:33;;;;;;;58.10;24.48;;;;;;;-4.25;64.68;100585.75;5049724;28;20800;-76
2023/02/06 03:10:08;;;;;;;68.70;28.17;;;;;;;-4.23;64.49;100586.44;5048638;28;20531;-75
2023/02/06 03:12:39;;;;;;;86.57;29.98;;;;;;;-4.20;65.05;100577.28;5049154;28;20564;-76
2023/02/06 03:15:25;;;;;;;69.43;27.02;;;;;;;-4.23;64.68;100580.25;5049524;28;20272;-75
2023/02/06 03:18:00;;;;;;;60.88;25.75;;;;;;;-4.23;64.63;100572.22;5049493;28;20032;-76
2023/02/06 03:20:26;;;;;;;60.83;25.08;;;;;;;-4.21;64.86;100572.91;5048320;28;20028;-75
2023/02/06 03:22:54;;;;;;;61.85;25.25;;;;;;;-4.20;64.98;100570.06;5049122;28;20075;-76
2023/02/06 03:25:30;;;;;;;60.70;26.35;;;;;;;-4.22;64.55;100564.00;5045685;28;20025;-75
2023/02/06 03:27:59;;;;;;;58.17;26.23;;;;;;;-4.19;64.80;100554.84;5049082;28;20111;-76
2023/02/06 03:30:27;;;;;;;59.58;26.70;;;;;;;-4.17;64.65;100563.59;5049112;28;20028;-75
2023/02/06 03:33:00;;;;;;;61.75;25.63;;;;;;;-4.18;64.67;100567.25;5048844;28;20495;-76
2023/02/06 03:35:30;;;;;;;58.58;26.48;;;;;;;-4.19;65.27;100566.41;5048967;28;20036;-76
2023/02/06 03:37:56;;;;;;;56.08;25.27;;;;;;;-4.19;64.78;100569.09;5049052;28;20515;-76
2023/02/06 03:40:23;;;;;;;62.42;27.30;;;;;;;-4.18;64.86;100572.63;5049987;28;20052;-76
2023/02/06 03:42:55;;;;;;;55.85;26.42;;;;;;;-4.20;64.73;100567.41;5048495;28;20025;-76
2023/02/06 03:45:29;;;;;;;60.60;27.05;;;;;;;-4.21;64.80;100565.72;5047851;28;20091;-76
2023/02/06 03:48:00;;;;;;;63.78;27.60;;;;;;;-4.20;65.05;100572.75;5049041;28;20028;-76
2023/02/06 03:50:26;;;;;;;63.72;28.33;;;;;;;-4.17;64.87;100574.31;5048558;28;20033;-76
2023/02/06 03:52:54;;;;;;;56.33;24.42;;;;;;;-4.13;64.96;100566.81;5046167;28;20029;-76
2023/02/06 03:55:22;;;;;;;70.63;27.25;;;;;;;-4.10;65.01;100575.41;5047419;28;20536;-76
2023/02/06 03:58:04;;;;;;;74.05;26.35;;;;;;;-4.08;65.20;100583.28;5048616;28;20485;-76
2023/02/06 04:00:31;;;;;;;75.40;27.90;;;;;;;-4.03;65.04;100572.97;5050152;28;20017;-76
2023/02/06 04:02:57;;;;;;;81.28;28.77;;;;;;;-4.03;65.23;100575.66;5047821;28;20033;-76
2023/02/06 04:05:23;;;;;;;76.22;25.98;;;;;;;-4.01;65.03;100576.34;5049973;28;20040;-76
2023/02/06 04:07:49;;;;;;;85.82;31.35;;;;;;;-3.98;65.44;100576.06;5053509;28;20031;-76
2023/02/06 04:10:14;;;;;;;177.57;52.58;;;;;;;-3.97;65.46;100567.03;5053410;28;20389;-76
2023/02/06 04:12:40;;;;;;;146.82;45.97;;;;;;;-3.95;64.97;100570.41;5052739;28;20021;-76
2023/02/06 04:15:06;;;;;;;157.43;46.85;;;;;;;-3.91;64.75;100573.63;5053461;28;20623;-76
2023/02/06 04:17:31;;;;;;;92.32;32.15;;;;;;;-3.90;65.13;100577.97;5052965;28;20131;-75
2023/02/06 04:19:57;;;;;;;80.35;29.60;;;;;;;-3.93;65.08;100564.88;5053340;28;20036;-76
2023/02/06 04:22:22;;;;;;;68.18;25.35;;;;;;;-3.92;64.96;100574.59;5052893;28;20037;-76
2023/02/06 04:24:48;;;;;;;66.72;25.25;;;;;;;-3.91;65.31;100571.78;5052576;28;20071;-76
2023/02/06 04:27:14;;;;;;;69.70;26.10;;;;;;;-3.90;65.28;100562.75;5052869;28;20033;-76
2023/02/06 04:29:40;;;;;;;68.57;25.17;;;;;;;-3.88;65.28;100565.28;5053094;28;20025;-76
2023/02/06 04:32:05;;;;;;;64.63;24.83;;;;;;;-3.87;65.08;100561.59;5053008;28;20029;-76
2023/02/06 04:34:32;;;;;;;65.22;25.73;;;;;;;-3.83;65.23;100564.81;5052383;28;20033;-76
2023/02/06 04:36:58;;;;;;;64.93;24.58;;;;;;;-3.83;65.25;100571.03;5052704;28;20025;-76
2023/02/06 04:39:24;;;;;;;75.30;29.30;;;;;;;-3.81;64.92;100569.03;5052785;28;20389;-76
2023/02/06 04:41:50;;;;;;;73.50;27.73;;;;;;;-3.82;65.19;100569.19;5052525;28;20036;-76
2023/02/06 04:44:15;;;;;;;69.25;26.38;;;;;;;-3.80;65.11;100577.91;5050524;28;20033;-76
2023/02/06 04:46:42;;;;;;;85.22;32.15;;;;;;;-3.82;65.10;100574.53;5052576;28;20029;-75
2023/02/06 04:49:08;;;;;;;101.30;35.53;;;;;;;-3.81;65.39;100585.13;5052536;28;20017;-76
2023/02/06 04:51:33;;;;;;;94.57;34.65;;;;;;;-3.80;64.99;100576.09;5052419;28;20177;-76
2023/02/06 04:53:59;;;;;;;87.43;30.45;;;;;;;-3.78;65.16;100578.63;5052290;28;20033;-77
2023/02/06 04:56:24;;;;;;;87.97;27.90;;;;;;;-3.79;65.30;100575.09;5052011;28;20029;-76
2023/02/06 04:58:50;;;;;;;75.45;26.63;;;;;;;-3.83;64.95;100575.53;5052485;28;20434;-76
2023/02/06 05:01:16;;;;;;;66.70;24.17;;;;;;;-3.86;65.24;100576.69;5051158;28;20048;-76
2023/02/06 05:03:42;;;;;;;84.43;28.35;;;;;;;-3.87;65.09;100577.69;5049646;28;20036;-76
2023/02/06 05:06:07;;;;;;;82.93;28.23;;;;;;;-3.90;65.25;100565.44;5052297;28;20112;-76
2023/02/06 05:08:33;;;;;;;87.57;29.80;;;;;;;-3.86;65.21;100562.44;5052412;28;20103;-76
2023/02/06 05:10:58;;;;;;;78.85;27.45;;;;;;;-3.87;64.94;100561.59;5051194;28;20029;-76
2023/02/06 05:13:24;;;;;;;74.55;26.02;;;;;;;-3.84;65.29;100560.44;5052064;28;20037;-76
2023/02/06 05:15:50;;;;;;;66.22;24.75;;;;;;;-3.86;65.01;100565.97;5052124;28;20028;-77
2023/02/06 05:18:15;;;;;;;50.45;20.95;;;;;;;-3.83;65.10;100567.50;5051517;28;20100;-75
2023/02/06 05:20:41;;;;;;;49.88;19.35;;;;;;;-3.82;65.25;100571.84;5052090;28;20086;-76
2023/02/06 05:23:07;;;;;;;44.55;18.67;;;;;;;-3.82;64.92;100575.41;5051842;28;20102;-76
2023/02/06 05:25:34;;;;;;;48.92;20.30;;;;;;;-3.82;65.44;100577.22;5052078;28;20033;-76
2023/02/06 05:28:00;;;;;;;41.47;18.63;;;;;;;-3.81;65.16;100578.91;5052053;28;20025;-76
2023/02/06 05:30:25;;;;;;;45.22;18.33;;;;;;;-3.83;64.81;100570.16;5052330;28;20374;-76
2023/02/06 05:32:51;;;;;;;41.40;17.35;;;;;;;-3.82;65.33;100566.50;5052134;28;20033;-76
2023/02/06 05:35:16;;;;;;;33.38;15.27;;;;;;;-3.80;65.16;100577.91;5050434;28;20083;-77
2023/02/06 05:37:42;;;;;;;35.75;15.35;;;;;;;-3.81;65.56;100569.03;5051610;28;20045;-76
2023/02/06 05:40:08;;;;;;;30.15;15.52;;;;;;;-3.80;65.32;100577.91;5050534;28;20025;-76
2023/02/06 05:42:34;;;;;;;31.48;14.52;;;;;;;-3.79;65.38;100584.97;5051195;28;20408;-76
2023/02/06 05:44:59;;;;;;;31.80;14.18;;;;;;;-3.78;65.08;100578.63;5051929;28;20031;-76
2023/02/06 05:47:25;;;;;;;30.95;14.43;;;;;;;-3.77;65.30;100573.13;5052506;28;20362;-76
2023/02/06 05:49:50;;;;;;;35.35;17.90;;;;;;;-3.75;65.16;100572.94;5051593;28;20021;-76
2023/02/06 05:52:16;;;;;;;43.47;17.63;;;;;;;-3.75;65.40;100578.31;5051452;28;20481;-76
2023/02/06 05:54:45;;;;;;;43.70;19.23;;;;;;;-3.76;65.30;100582.00;5051194;28;20048;-76
2023/02/06 05:57:10;;;;;;;45.25;19.40;;;;;;;-3.73;65.51;100587.06;5051666;28;20051;-76
2023/02/06 05:59:36;;;;;;;43.25;18.20;;;;;;;-3.72;65.01;100586.06;5051348;28;20029;-76
2023/02/06 06:02:02;;;;;;;34.20;16.25;;;;;;;-3.71;65.33;100576.19;5051910;28;20488;-76
2023/02/06 06:04:27;;;;;;;37.72;15.68;;;;;;;-3.68;65.84;100579.41;5051047;28;20025;-76
2023/02/06 06:06:53;;;;;;;31.42;14.25;;;;;;;-3.68;65.50;100582.09;5051620;28;20033;-77
2023/02/06 06:09:18;;;;;;;30.00;13.63;;;;;;;-3.66;64.88;100584.59;5050441;28;20478;-77
2023/02/06 06:11:44;;;;;;;30.15;13.85;;;;;;;-3.65;65.35;100589.84;5051856;28;20056;-77
2023/02/06 06:14:10;;;;;;;27.70;13.65;;;;;;;-3.64;65.17;100582.63;5051169;28;20024;-77
2023/02/06 06:16:35;;;;;;;32.83;14.55;;;;;;;-3.61;65.33;100587.69;5051411;28;20050;-77
2023/02/06 06:19:01;;;;;;;33.70;15.45;;;;;;;-3.60;65.05;100584.00;5051687;28;20599;-77
2023/02/06 06:21:26;;;;;;;36.13;16.00;;;;;;;-3.59;65.27;100588.38;5051501;28;20029;-76
2023/02/06 06:23:52;;;;;;;39.75;18.33;;;;;;;-3.59;65.28;100591.91;5050989;28;20048;-77
2023/02/06 06:26:17;;;;;;;40.38;17.67;;;;;;;-3.57;65.34;100589.06;5050915;28;20473;-76
2023/02/06 06:28:43;;;;;;;43.75;19.08;;;;;;;-3.55;65.38;100584.41;5050726;28;20469;-76
2023/02/06 06:31:12;;;;;;;47.15;21.42;;;;;;;-3.54;65.67;100577.22;5050948;28;20103;-76
2023/02/06 06:33:38;;;;;;;59.03;24.65;;;;;;;-3.55;65.21;100589.75;5049007;28;20029;-76
2023/02/06 06:36:05;;;;;;;59.42;24.88;;;;;;;-3.55;65.17;100591.63;5050802;28;20017;-77
2023/02/06 06:38:30;;;;;;;61.20;26.50;;;;;;;-3.56;65.40;100587.25;5051084;28;20049;-76
2023/02/06 06:40:56;;;;;;;62.05;26.40;;;;;;;-3.58;65.16;100584.69;5053942;28;20500;-76
2023/02/06 06:43:21;;;;;;;66.85;26.90;;;;;;;-3.58;65.18;100592.75;5052578;28;20032;-77
2023/02/06 06:45:48;;;;;;;62.05;28.35;;;;;;;-3.60;65.48;100586.69;5053983;28;20109;-77
2023/02/06 06:48:13;;;;;;;61.25;27.58;;;;;;;-3.61;65.02;100583.19;5051612;28;20036;-77
2023/02/06 06:50:39;;;;;;;67.82;27.55;;;;;;;-3.61;65.02;100593.03;5050705;28;20056;-76
2023/02/06 06:53:04;;;;;;;66.25;29.42;;;;;;;-3.61;64.98;100593.91;5048927;28;20079;-77
2023/02/06 06:55:30;;;;;;;73.38;30.42;;;;;;;-3.61;64.92;100591.22;5050084;28;20443;-77
2023/02/06 06:57:55;;;;;;;76.85;31.60;;;;;;;-3.60;64.86;100590.22;5050375;28;20158;-77
2023/02/06 07:00:21;;;;;;;84.63;34.75;;;;;;;-3.57;64.71;100588.25;5049872;28;20028;-77
2023/02/06 07:02:46;;;;;;;72.40;33.15;;;;;;;-3.54;65.15;100588.78;5049385;28;20078;-76
2023/02/06 07:05:12;;;;;;;73.68;33.00;;;;;;;-3.53;65.21;100589.63;5049714;28;20107;-76
2023/02/06 07:07:38;;;;;;;74.63;33.70;;;;;;;-3.53;64.70;100582.41;5049859;28;20098;-77
2023/02/06 07:10:05;;;;;;;79.07;35.00;;;;;;;-3.50;64.94;100587.47;5049912;28;20094;-77
2023/02/06 07:12:30;;;;;;;74.88;35.13;;;;;;;-3.48;65.12;100580.13;5048970;28;20044;-76
2023/02/06 07:14:55;;;;;;;73.65;34.83;;;;;;;-3.45;65.24;100579.81;5047630;28;20374;-76
2023/02/06 07:17:21;;;;;;;71.22;34.90;;;;;;;-3.44;65.05;100578.81;5038906;28;20250;-76
2023/02/06 07:19:48;;;;;;;79.40;36.17;;;;;;;-3.43;64.96;100574.28;5048974;28;20037;-76
2023/02/06 07:22:14;;;;;;;73.78;32.95;;;;;;;-3.44;64.86;100575.28;5048875;28;20029;-76
2023/02/06 07:24:40;;;;;;;67.72;31.52;;;;;;;-3.44;64.70;100577.97;5048745;28;20622;-75
2023/02/06 07:27:05;;;;;;;67.40;31.80;;;;;;;-3.42;64.75;100581.34;5049111;28;20040;-78
2023/02/06 07:29:31;;;;;;;63.25;31.08;;;;;;;-3.38;65.09;100585.41;5046105;28;20032;-78
2023/02/06 07:31:56;;;;;;;64.70;30.02;;;;;;;-3.39;64.82;100573.00;5046437;28;20037;-78
2023/02/06 07:34:22;;;;;;;65.05;29.52;;;;;;;-3.37;64.86;100581.72;5047530;28;20033;-76
2023/02/06 07:36:53;;;;;;;65.03;29.77;;;;;;;-3.36;64.30;100577.22;5048712;28;20025;-77
2023/02/06 07:39:19;;;;;;;63.22;29.00;;;;;;;-3.35;64.60;100577.06;5051571;28;20086;-77
2023/02/06 07:41:45;;;;;;;56.95;26.42;;;;;;;-3.33;64.74;100577.75;5046231;28;20037;-77
2023/02/06 07:44:11;;;;;;;48.95;22.80;;;;;;;-3.29;64.25;100587.19;5044545;28;20495;-77
2023/02/06 07:46:36;;;;;;;48.35;23.20;;;;;;;-3.26;64.27;100587.88;5047713;28;20033;-78
2023/02/06 07:49:02;;;;;;;50.47;22.35;;;;;;;-3.23;64.62;100585.72;5044306;28;20040;-79
2023/02/06 07:51:28;;;;;;;45.10;21.67;;;;;;;-3.16;64.58;100585.97;5046286;28;20029;-77
2023/02/06 07:53:53;;;;;;;48.47;21.08;;;;;;;-3.11;64.48;100591.72;5045702;28;20028;-78
2023/02/06 07:56:22;;;;;;;66.15;29.40;;;;;;;-3.05;64.51;100585.72;5049130;28;20091;-78
2023/02/06 07:58:52;;;;;;;56.03;23.23;;;;;;;-2.97;64.33;100584.09;5049211;28;20025;-79
2023/02/06 08:01:18;;;;;;;45.40;19.35;;;;;;;-2.90;64.08;100579.78;5045119;28;20033;-74
2023/02/06 08:03:44;;;;;;;50.75;21.88;;;;;;;-2.84;64.50;100579.19;5047672;28;20033;-74
2023/02/06 08:06:13;;;;;;;46.83;22.13;;;;;;;-2.79;63.95;100584.06;5048135;28;20032;-74
2023/02/06 08:08:39;;;;;;;45.20;21.40;;;;;;;-2.75;64.08;100574.69;5047344;28;20430;-74
2023/02/06 08:11:10;;;;;;;41.17;18.92;;;;;;;-2.72;63.99;100583.31;5046451;28;20156;-74
2023/02/06 08:13:36;;;;;;;39.47;17.77;;;;;;;-2.67;63.73;100585.50;5048014;28;20100;-75
2023/02/06 08:16:04;;;;;;;39.38;18.20;;;;;;;-2.71;63.69;100576.94;5046589;28;20163;-72
2023/02/06 08:18:29;;;;;;;32.85;15.55;;;;;;;-2.68;63.26;100589.19;5044240;28;20071;-75
2023/02/06 08:21:19;;;;;;;28.80;13.40;;;;;;;-2.66;63.55;100599.81;5049717;28;20017;-75
2023/02/06 08:23:45;;;;;;;;;;;;;;;-2.65;63.58;100598.81;5045120;28;20048;-75
2023/02/06 08:26:16;;;;;;;109.65;36.28;;;;;;;-2.65;63.13;100596.13;5048086;28;20007;-72
2023/02/06 08:28:43;;;;;;;40.60;16.38;;;;;;;-2.63;63.17;100604.84;5044823;28;20033;-72
2023/02/06 08:31:24;;;;;;;35.50;15.18;;;;;;;-2.63;63.41;100607.50;5048269;28;20044;-73
2023/02/06 08:33:50;;;;;;;63.20;23.55;;;;;;;-2.60;63.04;100601.84;5047543;28;21391;-75
2023/02/06 08:36:18;;;;;;;254.07;84.50;;;;;;;-2.57;63.35;100606.91;5047833;28;20029;-75
2023/02/06 08:38:43;;;;;;;122.90;44.65;;;;;;;-2.55;63.35;100600.38;5048211;28;20206;-74
2023/02/06 08:41:20;;;;;;;97.95;42.55;;;;;;;-2.49;63.09;100598.06;5045875;28;20473;-73
2023/02/06 08:43:47;;;;;;;76.70;39.63;;;;;;;-2.47;62.84;100604.97;5046243;28;20064;-75
2023/02/06 08:46:13;;;;;;;38.03;17.52;;;;;;;-2.45;62.61;100597.59;5046112;28;20544;-75
2023/02/06 08:48:38;;;;;;;32.05;15.68;;;;;;;-2.44;62.86;100599.28;5046713;28;20032;-75
2023/02/06 08:51:05;;;;;;;37.17;22.65;;;;;;;-2.45;62.57;100599.44;5048124;28;20062;-75
2023/02/06 08:53:32;;;;;;;30.10;16.92;;;;;;;-2.45;62.13;100596.75;5050272;28;20029;-76
2023/02/06 08:55:59;;;;;;;25.80;13.57;;;;;;;-2.45;62.46;100597.59;5052919;28;20041;-74
2023/02/06 08:58:25;;;;;;;28.60;13.88;;;;;;;-2.43;62.37;100600.97;5052194;28;20029;-75
2023/02/06 09:00:51;;;;;;;25.25;12.48;;;;;;;-2.43;61.88;100603.63;5052645;28;20051;-76
2023/02/06 09:03:17;;;;;;;25.58;12.32;;;;;;;-2.46;61.97;100603.13;5051709;28;20036;-75
2023/02/06 09:05:42;;;;;;;35.72;16.65;;;;;;;-2.48;62.24;100603.28;5051981;28;20037;-72
2023/02/06 09:08:08;;;;;;;25.77;12.55;;;;;;;-2.52;62.20;100604.59;5050171;28;20145;-74
2023/02/06 09:10:33;;;;;;;45.50;18.45;;;;;;;-2.53;61.77;100608.28;5048582;28;20068;-77
2023/02/06 09:12:58;;;;;;;26.60;12.85;;;;;;;-2.58;61.97;100600.69;5050952;28;20465;-74
2023/02/06 09:15:24;;;;;;;24.90;12.48;;;;;;;-2.57;61.76;100599.69;5050429;28;20382;-71
2023/02/06 09:17:49;;;;;;;23.58;11.40;;;;;;;-2.57;62.02;100596.16;5048526;28;20040;-74
2023/02/06 09:20:15;;;;;;;26.88;12.93;;;;;;;-2.58;61.94;100606.06;5053616;28;20029;-73
2023/02/06 09:22:41;;;;;;;23.52;14.25;;;;;;;-2.60;61.88;100604.53;5051613;28;20037;-74
2023/02/06 09:25:06;;;;;;;39.65;18.50;;;;;;;-2.59;62.08;100607.06;5049913;28;20036;-72
2023/02/06 09:27:32;;;;;;;30.05;13.50;;;;;;;-2.60;61.83;100607.22;5048604;28;20039;-73
2023/02/06 09:29:57;;;;;;;31.30;13.50;;;;;;;-2.57;61.60;100620.31;5045794;28;20102;-76
2023/02/06 09:32:22;;;;;;;28.23;12.10;;;;;;;-2.54;61.76;100620.03;5055146;28;20400;-75
2023/02/06 09:34:48;;;;;;;29.92;12.90;;;;;;;-2.55;61.35;100613.81;5051360;28;20043;-75
2023/02/06 09:37:13;;;;;;;52.22;16.70;;;;;;;-2.55;61.66;100602.22;5056054;28;20076;-77
2023/02/06 09:39:38;;;;;;;61.65;19.35;;;;;;;-2.53;61.44;100612.81;5050255;28;20441;-77
2023/02/06 09:42:33;;;;;;;30.10;12.27;;;;;;;-2.56;61.22;100617.50;5049647;28;20056;-76
2023/02/06 09:45:15;;;;;;;72.05;20.55;;;;;;;-2.53;61.42;100613.66;5045176;28;20033;-73
2023/02/06 09:48:15;;;;;;;71.88;20.60;;;;;;;-2.56;61.46;100604.06;5051676;28;20044;-76
2023/02/06 09:51:07;;;;;;;43.63;13.68;;;;;;;-2.55;61.16;100610.28;5045200;28;20570;-73
2023/02/06 09:53:47;;;;;;;27.67;10.90;;;;;;;-2.56;60.96;100614.81;5046369;28;20508;-74
2023/02/06 09:56:37;;;;;;;27.63;10.35;;;;;;;-2.55;60.95;100613.81;5050481;28;20032;-74
2023/02/06 09:59:11;;;;;;;23.98;10.05;;;;;;;-2.51;61.20;100611.66;5049689;28;20041;-74
2023/02/06 10:01:57;;;;;;;19.48;9.68;;;;;;;-2.48;61.10;100615.88;5049433;28;20039;-72
2023/02/06 10:04:35;;;;;;;26.27;11.07;;;;;;;-2.46;60.60;100612.03;5048474;28;20041;-75
2023/02/06 10:07:15;;;;;;;18.10;8.90;;;;;;;-2.44;60.67;100610.03;5051945;28;20076;-76
2023/02/06 10:09:51;;;;;;;17.25;7.88;;;;;;;-2.43;60.63;100613.53;5051670;28;20401;-76
2023/02/06 10:12:29;;;;;;;19.63;8.93;;;;;;;-2.45;60.49;100604.81;5042746;28;20075;-73
2023/02/06 10:15:00;;;;;;;17.55;9.45;;;;;;;-2.43;60.53;100598.28;5046520;28;20159;-75
2023/02/06 10:17:36;;;;;;;22.05;10.57;;;;;;;-2.41;60.51;100603.47;5050252;28;20029;-75
2023/02/06 10:20:09;;;;;;;13.98;6.25;;;;;;;-2.38;60.18;100600.47;5050527;28;20071;-76
2023/02/06 10:22:51;;;;;;;12.77;6.75;;;;;;;-2.37;60.29;100607.53;5050950;28;20108;-76
2023/02/06 10:25:31;;;;;;;31.02;10.25;;;;;;;-2.37;59.64;100606.69;5049096;28;20032;-76
2023/02/06 10:28:00;;;;;;;72.60;17.58;;;;;;;-2.38;60.06;100603.16;5050287;28;20067;-76
2023/02/06 10:30:54;;;;;;;17.83;7.70;;;;;;;-2.39;59.87;100609.53;5050369;28;20029;-76
2023/02/06 10:33:44;;;;;;;48.13;14.07;;;;;;;-2.34;59.88;100611.75;5033322;28;20544;-76
2023/02/06 10:36:25;;;;;;;17.60;7.10;;;;;;;-2.34;59.90;100591.09;5039713;28;20036;-73
2023/02/06 10:39:28;;;;;;;45.25;13.00;;;;;;;-2.31;59.73;100589.94;5045401;28;20092;-75
2023/02/06 10:42:12;;;;;;;26.00;9.82;;;;;;;-2.28;59.49;100587.78;5045970;28;20032;-75
2023/02/06 10:45:02;;;;;;;28.92;10.35;;;;;;;-2.27;59.50;100586.75;5048521;28;20159;-75
2023/02/06 10:47:27;;;;;;;;;;;;;;;-2.23;59.50;100587.28;5050141;28;20126;-75
2023/02/06 10:50:12;;;;;;;12.88;5.80;;;;;;;-2.23;58.95;100578.38;5049998;28;19959;-75
2023/02/06 10:52:38;;;;;;;14.45;6.50;;;;;;;-2.24;59.15;100582.91;5050161;28;20025;-75
2023/02/06 10:55:16;;;;;;;22.27;9.25;;;;;;;-2.25;59.38;100579.38;5049399;28;20033;-75
2023/02/06 10:57:45;;;;;;;15.82;7.13;;;;;;;-2.21;59.24;100574.53;5049254;28;20118;-75
2023/02/06 11:00:23;;;;;;;17.83;7.70;;;;;;;-2.24;58.98;100569.47;5048243;28;20032;-78
2023/02/06 11:02:54;;;;;;;19.25;7.30;;;;;;;-2.22;58.88;100572.84;5049724;28;20024;-76
2023/02/06 11:05:26;;;;;;;15.02;7.28;;;;;;;-2.18;58.77;100566.13;5049190;28;20025;-75
2023/02/06 11:08:12;;;;;;;22.48;10.23;;;;;;;-2.12;58.89;100573.56;5049854;28;20545;-75
2023/02/06 11:10:39;;;;;;;20.92;8.90;;;;;;;-2.05;59.20;100572.94;5048163;28;20025;-77
2023/02/06 11:13:32;;;;;;;17.10;9.15;;;;;;;-2.01;58.99;100567.06;5049524;28;20531;-75
2023/02/06 11:16:01;;;;;;;24.38;14.05;;;;;;;-1.94;58.87;100569.94;5049216;28;20107;-78
2023/02/06 11:18:34;;;;;;;23.08;12.90;;;;;;;-1.89;58.96;100564.06;5049424;28;20116;-77